createdAt,value
2024-01-05T00:09:51.958Z,463.60
2024-01-05T00:25:18.072Z,466.53
2024-01-05T00:40:43.025Z,467.99
2024-01-05T00:56:08.051Z,468.91
2024-01-05T01:11:32.993Z,466.83
2024-01-05T01:26:57.944Z,467.51
2024-01-05T01:42:23.028Z,467.97
2024-01-05T01:57:47.927Z,470.46
2024-01-05T02:13:12.894Z,472.21
2024-01-05T02:28:37.919Z,473.09
2024-01-05T02:44:02.913Z,472.02
2024-01-05T02:59:27.917Z,471.49
2024-01-05T03:14:52.907Z,471.11
2024-01-05T03:30:17.969Z,470.93
2024-01-05T03:45:42.926Z,473.27
2024-01-05T04:01:07.920Z,471.69
2024-01-05T04:16:32.857Z,476.08
2024-01-05T04:31:57.827Z,475.47
2024-01-05T04:47:22.868Z,474.44
2024-01-05T05:02:47.886Z,477.69
2024-01-05T05:18:12.975Z,477.77
2024-01-05T05:33:37.948Z,477.10
2024-01-05T05:49:02.992Z,477.05
2024-01-05T06:04:27.910Z,476.17
2024-01-05T06:19:52.827Z,476.08
2024-01-05T06:35:17.804Z,475.22
2024-01-05T06:50:42.900Z,475.02
2024-01-05T07:06:07.789Z,474.76
2024-01-05T07:21:32.836Z,474.08
2024-01-05T07:36:57.789Z,475.81
2024-01-05T07:52:22.724Z,476.30
2024-01-05T08:07:47.780Z,477.75
2024-01-05T08:23:12.748Z,477.69
2024-01-05T08:38:37.672Z,480.66
2024-01-05T08:54:02.694Z,480.40
2024-01-05T09:09:27.753Z,482.00
2024-01-05T09:24:52.685Z,481.81
2024-01-05T09:40:17.659Z,480.61
2024-01-05T09:55:42.637Z,480.62
2024-01-05T10:11:07.595Z,480.12
2024-01-05T10:26:32.618Z,481.78
2024-01-05T10:41:57.648Z,483.29
2024-01-05T10:57:22.761Z,484.01
2024-01-05T11:12:47.660Z,485.71
2024-01-05T11:28:12.606Z,486.84
2024-01-05T11:43:37.580Z,487.85
2024-01-05T11:59:02.581Z,489.11
2024-01-05T12:14:27.534Z,487.30
2024-01-05T12:29:53.601Z,489.16
2024-01-05T12:45:18.551Z,488.92
2024-01-05T13:00:44.800Z,487.50
2024-01-05T13:16:09.584Z,488.08
2024-01-05T13:31:34.717Z,488.35
2024-01-05T13:46:59.590Z,486.79
2024-01-05T14:02:24.519Z,485.76
2024-01-05T14:17:49.537Z,485.53
2024-01-05T14:33:14.533Z,485.51
2024-01-05T14:48:39.702Z,486.28
2024-01-05T15:04:04.646Z,486.56
2024-01-05T15:19:29.608Z,486.50
2024-01-05T15:34:54.525Z,486.91
2024-01-05T15:50:19.493Z,486.69
2024-01-05T16:05:44.499Z,487.95
2024-01-05T16:21:09.445Z,488.06
2024-01-05T16:36:34.431Z,487.95
2024-01-05T16:51:59.465Z,487.84
2024-01-05T17:07:24.358Z,487.88
2024-01-05T17:22:49.406Z,488.00
2024-01-05T17:38:14.410Z,488.40
2024-01-05T17:53:39.450Z,488.61
2024-01-05T18:09:04.438Z,487.76
2024-01-05T18:24:29.592Z,486.74
2024-01-05T18:39:54.454Z,486.11
2024-01-05T18:55:19.344Z,487.48
2024-01-05T19:10:45.345Z,487.62
2024-01-05T19:26:10.350Z,487.46
2024-01-05T19:41:35.327Z,487.10
2024-01-05T19:57:00.340Z,486.42
2024-01-05T20:12:25.351Z,486.96
2024-01-05T20:27:50.413Z,487.98
2024-01-05T20:43:15.309Z,487.43
2024-01-05T20:58:42.424Z,487.18
2024-01-05T21:14:05.304Z,488.24
2024-01-05T21:29:31.252Z,488.47
2024-01-05T21:44:56.276Z,488.14
2024-01-05T22:00:21.281Z,487.25
2024-01-05T22:15:46.191Z,486.75
2024-01-05T22:31:11.376Z,486.02
2024-01-05T22:46:36.174Z,485.07
2024-01-05T23:02:01.280Z,485.38
2024-01-05T23:17:26.234Z,484.61
2024-01-05T23:32:51.209Z,485.75
2024-01-05T23:48:16.313Z,485.62
